createdAt,value
2023-04-01T00:01:41.110Z,14.17
2023-04-01T00:04:16.960Z,14.09
2023-04-01T00:06:49.970Z,14.08
2023-04-01T00:09:17.540Z,14.08
2023-04-01T00:11:46.437Z,13.92
2023-04-01T00:14:15.624Z,13.90
2023-04-01T00:16:43.071Z,13.80
2023-04-01T00:19:10.941Z,13.74
2023-04-01T00:21:39.467Z,13.83
2023-04-01T00:24:09.957Z,13.87
2023-04-01T00:26:47.016Z,13.79
2023-04-01T00:29:17.539Z,13.70
2023-04-01T00:31:44.910Z,13.70
2023-04-01T00:34:13.424Z,13.72
2023-04-01T00:36:40.881Z,13.66
2023-04-01T00:39:08.999Z,13.72
2023-04-01T00:41:37.838Z,13.68
2023-04-01T00:44:27.394Z,13.73
2023-04-01T00:46:56.779Z,13.68
2023-04-01T00:49:33.371Z,13.63
2023-04-01T00:52:02.546Z,13.59
2023-04-01T00:54:31.766Z,13.55
2023-04-01T00:57:01.365Z,13.64
2023-04-01T00:59:31.589Z,13.68
2023-04-01T01:01:59.217Z,13.68
2023-04-01T01:04:35.198Z,13.63
2023-04-01T01:07:36.524Z,13.66
2023-04-01T01:10:10.193Z,13.55
2023-04-01T01:13:17.592Z,13.58
2023-04-01T01:15:54.724Z,13.52
2023-04-01T01:18:37.208Z,13.43
2023-04-01T01:21:18.814Z,13.49
2023-04-01T01:24:08.175Z,13.47
2023-04-01T01:26:45.720Z,13.49
2023-04-01T01:29:31.738Z,13.40
2023-04-01T01:32:30.896Z,13.40
2023-04-01T01:35:26.344Z,13.34
2023-04-01T01:38:02.248Z,13.28
2023-04-01T01:40:35.191Z,13.22
2023-04-01T01:43:10.996Z,13.31
2023-04-01T01:45:44.403Z,13.16
2023-04-01T01:48:13.528Z,13.21
2023-04-01T01:50:42.891Z,13.31
2023-04-01T01:53:14.176Z,13.22
2023-04-01T01:55:44.872Z,13.22
2023-04-01T01:58:20.717Z,13.17
2023-04-01T02:01:02.693Z,13.13
2023-04-01T02:03:35.608Z,13.21
2023-04-01T02:06:08.466Z,13.10
2023-04-01T02:08:55.076Z,12.93
2023-04-01T02:11:31.514Z,12.88
2023-04-01T02:14:22.828Z,12.85
2023-04-01T02:16:59.536Z,12.89
2023-04-01T02:19:32.591Z,12.85
2023-04-01T02:22:04.917Z,12.73
2023-04-01T02:24:36.226Z,12.58
2023-04-01T02:27:05.030Z,12.58
2023-04-01T02:29:34.499Z,12.52
2023-04-01T02:32:06.037Z,12.60
2023-04-01T02:34:36.781Z,12.58
2023-04-01T02:37:04.554Z,12.56
2023-04-01T02:39:34.585Z,12.56
2023-04-01T02:42:02.498Z,12.56
2023-04-01T02:44:30.708Z,12.58
2023-04-01T02:47:00.460Z,12.52
2023-04-01T02:49:28.143Z,12.49
2023-04-01T02:51:56.454Z,12.44
2023-04-01T02:54:24.045Z,12.43
2023-04-01T02:56:51.339Z,12.33
2023-04-01T02:59:21.573Z,12.33
2023-04-01T03:01:49.073Z,12.32
2023-04-01T03:04:17.785Z,12.29
2023-04-01T03:06:46.408Z,12.35
2023-04-01T03:09:14.331Z,12.30
2023-04-01T03:11:43.167Z,12.32
2023-04-01T03:14:10.920Z,12.22
2023-04-01T03:16:39.677Z,12.03
2023-04-01T03:19:07.914Z,11.92
2023-04-01T03:21:35.790Z,11.92
2023-04-01T03:24:07.492Z,11.96
2023-04-01T03:26:36.141Z,11.90
2023-04-01T03:29:03.811Z,11.88
2023-04-01T03:31:32.711Z,11.80
2023-04-01T03:34:02.051Z,11.68
2023-04-01T03:36:30.431Z,11.74
2023-04-01T03:38:58.812Z,11.84
2023-04-01T03:41:39.120Z,11.98
2023-04-01T03:44:07.583Z,11.98
2023-04-01T03:46:36.440Z,12.03
2023-04-01T03:49:12.394Z,12.06
2023-04-01T03:51:41.009Z,12.12
2023-04-01T03:54:09.777Z,12.08
2023-04-01T03:56:38.511Z,12.08
2023-04-01T03:59:08.527Z,12.04
2023-04-01T04:01:54.457Z,12.17
2023-04-01T04:04:22.834Z,12.15
2023-04-01T04:06:52.334Z,12.13
2023-04-01T04:09:26.609Z,12.12
2023-04-01T04:11:55.044Z,12.07
2023-04-01T04:14:23.918Z,12.13
2023-04-01T04:16:52.626Z,12.08
2023-04-01T04:19:23.131Z,12.04
2023-04-01T04:21:50.656Z,12.04
2023-04-01T04:24:20.652Z,11.92
2023-04-01T04:27:01.984Z,11.89
2023-04-01T04:29:36.278Z,11.90
2023-04-01T04:32:31.194Z,11.76
2023-04-01T04:35:23.776Z,11.71
2023-04-01T04:37:51.936Z,11.73
2023-04-01T04:40:21.099Z,11.65
2023-04-01T04:42:52.701Z,11.69
2023-04-01T04:45:22.397Z,11.73
2023-04-01T04:48:02.996Z,11.62
2023-04-01T04:50:34.704Z,11.64
2023-04-01T04:53:03.091Z,11.58
2023-04-01T04:55:32.937Z,11.54
2023-04-01T04:58:39.949Z,11.53
2023-04-01T05:01:12.467Z,11.57
2023-04-01T05:03:40.981Z,11.66
2023-04-01T05:06:10.071Z,11.69
2023-04-01T05:08:38.544Z,11.61
2023-04-01T05:11:14.010Z,11.62
2023-04-01T05:13:44.405Z,11.54
2023-04-01T05:16:15.738Z,11.58
2023-04-01T05:18:45.530Z,11.59
2023-04-01T05:21:14.725Z,11.57
2023-04-01T05:23:42.467Z,11.60
2023-04-01T05:26:14.326Z,11.67
2023-04-01T05:28:42.908Z,11.70
2023-04-01T05:31:10.956Z,11.63
2023-04-01T05:33:41.880Z,11.62
2023-04-01T05:36:17.323Z,11.65
2023-04-01T05:38:50.105Z,11.74
2023-04-01T05:41:19.191Z,11.73
2023-04-01T05:43:48.611Z,11.59
2023-04-01T05:46:44.885Z,11.59
2023-04-01T05:49:20.078Z,11.51
2023-04-01T05:51:48.540Z,11.43
2023-04-01T05:54:19.509Z,11.27
2023-04-01T05:56:49.057Z,11.10
2023-04-01T05:59:18.583Z,11.08
2023-04-01T06:01:46.750Z,11.09
2023-04-01T06:04:17.870Z,11.11
2023-04-01T06:06:46.599Z,10.89
2023-04-01T06:09:20.500Z,11.04
2023-04-01T06:12:08.971Z,11.07
2023-04-01T06:15:29.928Z,11.08
2023-04-01T06:18:39.777Z,11.18
2023-04-01T06:21:23.904Z,11.25
2023-04-01T06:24:16.841Z,11.16
2023-04-01T06:27:45.522Z,11.06
2023-04-01T06:30:28.919Z,10.98
2023-04-01T06:33:04.134Z,11.02
2023-04-01T06:36:09.692Z,10.93
2023-04-01T06:39:08.403Z,10.72
2023-04-01T06:42:00.114Z,10.58
2023-04-01T06:44:50.957Z,10.64
2023-04-01T06:47:57.082Z,10.73
2023-04-01T06:51:05.812Z,10.73
2023-04-01T06:54:11.983Z,10.70
2023-04-01T06:57:06.911Z,10.70
2023-04-01T06:59:43.405Z,10.57
2023-04-01T07:02:34.112Z,10.64
2023-04-01T07:05:12.068Z,10.53
2023-04-01T07:07:49.894Z,10.55
2023-04-01T07:10:32.492Z,10.58
2023-04-01T07:14:20.508Z,10.61
2023-04-01T07:17:34.504Z,10.65
2023-04-01T07:23:30.875Z,10.68
2023-04-01T07:26:29.310Z,10.93
2023-04-01T07:29:20.307Z,10.97
2023-04-01T07:32:38.978Z,11.37
2023-04-01T07:35:29.637Z,11.44
2023-04-01T07:38:38.318Z,11.44
2023-04-01T07:41:23.949Z,11.44
2023-04-01T07:44:14.219Z,11.37
2023-04-01T07:46:55.321Z,11.23
2023-04-01T07:49:38.004Z,11.48
2023-04-01T07:52:21.774Z,11.45
2023-04-01T07:55:32.515Z,11.27
2023-04-01T07:58:07.910Z,11.53
2023-04-01T08:01:04.327Z,11.21
2023-04-01T08:04:25.990Z,11.12
2023-04-01T08:07:26.327Z,11.16
2023-04-01T08:10:52.847Z,11.03
2023-04-01T08:14:28.731Z,11.08
2023-04-01T08:17:34.617Z,11.06
2023-04-01T08:20:44.509Z,10.96
2023-04-01T08:23:33.328Z,10.97
2023-04-01T08:26:13.473Z,11.04
2023-04-01T08:28:52.566Z,11.11
2023-04-01T08:31:53.599Z,11.08
2023-04-01T08:34:29.484Z,11.10
2023-04-01T08:37:29.668Z,10.99
2023-04-01T08:40:38.309Z,10.99
2023-04-01T08:44:14.362Z,11.09
2023-04-01T08:47:22.185Z,11.14
2023-04-01T08:50:09.913Z,11.36
2023-04-01T08:56:48.965Z,11.60
2023-04-01T09:04:13.739Z,12.00
2023-04-01T09:07:01.513Z,12.01
2023-04-01T09:13:33.477Z,11.99
2023-04-01T09:17:10.008Z,11.97
2023-04-01T09:20:05.236Z,12.07
2023-04-01T09:23:05.181Z,12.24
2023-04-01T09:26:05.718Z,11.86
2023-04-01T09:32:21.008Z,12.60
2023-04-01T09:35:23.994Z,12.80
2023-04-01T09:38:39.671Z,12.82
2023-04-01T09:41:29.418Z,12.87
2023-04-01T09:44:57.927Z,13.21
2023-04-01T09:48:21.810Z,13.31
2023-04-01T09:51:06.449Z,12.94
2023-04-01T09:53:47.534Z,13.04
2023-04-01T09:57:24.629Z,12.91
2023-04-01T10:00:16.960Z,12.57
2023-04-01T10:03:28.476Z,12.61
2023-04-01T10:06:35.853Z,12.54
2023-04-01T10:09:58.386Z,11.69
2023-04-01T10:12:57.300Z,11.52
2023-04-01T10:15:55.400Z,11.39
2023-04-01T10:18:39.853Z,11.10
2023-04-01T10:21:39.678Z,10.89
2023-04-01T10:24:48.138Z,10.91
2023-04-01T10:27:31.632Z,10.76
2023-04-01T10:30:23.869Z,10.16
2023-04-01T10:33:21.773Z,10.06
2023-04-01T10:36:11.117Z,9.99
2023-04-01T10:39:04.862Z,10.17
2023-04-01T10:42:20.260Z,9.99
2023-04-01T10:45:46.515Z,10.17
2023-04-01T10:48:13.975Z,10.25
2023-04-01T10:50:53.210Z,10.19
2023-04-01T10:53:28.292Z,10.06
2023-04-01T10:56:41.076Z,10.29
2023-04-01T11:00:19.643Z,10.26
2023-04-01T11:03:51.034Z,10.25
2023-04-01T11:06:51.186Z,9.95
2023-04-01T11:09:31.799Z,10.06
2023-04-01T11:12:04.204Z,10.09
2023-04-01T11:14:53.166Z,10.09
2023-04-01T11:17:52.461Z,9.93
2023-04-01T11:20:44.865Z,9.71
2023-04-01T11:23:33.995Z,9.65
2023-04-01T11:27:09.421Z,9.59
2023-04-01T11:30:00.252Z,9.47
2023-04-01T11:32:43.193Z,9.46
2023-04-01T11:35:53.900Z,9.60
2023-04-01T11:38:45.763Z,9.56
2023-04-01T11:42:15.445Z,9.47
2023-04-01T11:45:16.230Z,9.51
2023-04-01T11:48:16.230Z,9.39
2023-04-01T11:50:49.435Z,9.55
2023-04-01T11:53:34.484Z,9.60
2023-04-01T11:56:20.765Z,9.55
2023-04-01T11:59:11.851Z,9.55
2023-04-01T12:01:53.340Z,9.61
2023-04-01T12:04:55.616Z,9.57
2023-04-01T12:08:02.160Z,9.55
2023-04-01T12:10:47.510Z,9.51
2023-04-01T12:13:50.019Z,9.44
2023-04-01T12:16:33.727Z,9.42
2023-04-01T12:19:06.763Z,9.47
2023-04-01T12:21:47.558Z,9.48
2023-04-01T12:24:38.576Z,9.59
2023-04-01T12:28:01.818Z,9.65
2023-04-01T12:30:56.646Z,9.56
2023-04-01T12:34:04.543Z,9.61
2023-04-01T12:40:51.928Z,9.52
2023-04-01T12:43:33.277Z,9.53
2023-04-01T12:46:23.893Z,9.52
2023-04-01T12:49:28.195Z,9.62
2023-04-01T12:52:39.729Z,9.53
2023-04-01T12:55:56.412Z,9.56
2023-04-01T12:58:42.442Z,9.55
2023-04-01T13:02:42.473Z,9.75
2023-04-01T13:05:42.232Z,9.62
2023-04-01T13:08:27.987Z,9.73
2023-04-01T13:11:19.998Z,9.73
2023-04-01T13:14:24.969Z,9.78
2023-04-01T13:17:24.610Z,9.69
2023-04-01T13:20:31.808Z,9.67
2023-04-01T13:24:04.745Z,9.64
2023-04-01T13:26:50.566Z,9.64
2023-04-01T13:29:24.003Z,9.65
2023-04-01T13:32:33.260Z,9.69
2023-04-01T13:36:12.694Z,9.63
2023-04-01T13:38:47.057Z,9.52
2023-04-01T13:41:31.562Z,9.51
2023-04-01T13:44:51.926Z,9.61
2023-04-01T13:48:02.210Z,9.66
2023-04-01T13:50:52.880Z,9.65
2023-04-01T13:53:41.397Z,9.69
2023-04-01T13:56:31.867Z,9.73
2023-04-01T13:59:27.900Z,9.68
2023-04-01T14:02:26.759Z,9.61
2023-04-01T14:05:42.157Z,9.73
2023-04-01T14:08:42.292Z,9.74
2023-04-01T14:11:22.036Z,9.68
2023-04-01T14:14:08.161Z,9.76
2023-04-01T14:17:09.793Z,9.79
2023-04-01T14:20:10.116Z,9.73
2023-04-01T14:22:56.939Z,9.68
2023-04-01T14:25:35.745Z,9.67
2023-04-01T14:28:41.292Z,9.82
2023-04-01T14:31:12.536Z,9.90
2023-04-01T14:34:18.881Z,9.84
2023-04-01T14:37:03.790Z,9.83
2023-04-01T14:39:53.674Z,9.85
2023-04-01T14:42:29.834Z,9.89
2023-04-01T14:45:48.079Z,9.78
2023-04-01T14:48:37.883Z,9.66
2023-04-01T14:51:40.065Z,9.73
2023-04-01T14:54:24.508Z,9.61
2023-04-01T14:57:13.373Z,9.69
2023-04-01T14:59:47.040Z,9.73
2023-04-01T15:02:35.165Z,9.71
2023-04-01T15:05:25.835Z,9.71
2023-04-01T15:08:38.135Z,9.76
2023-04-01T15:11:51.223Z,9.75
2023-04-01T15:14:33.691Z,9.78
2023-04-01T15:17:37.635Z,9.81
2023-04-01T15:25:17.826Z,24.25
2023-04-01T15:25:48.737Z,24.43
2023-04-01T15:26:40.723Z,24.76
2023-04-01T15:27:22.945Z,24.86
2023-04-01T15:35:31.219Z,13.17
2023-04-01T15:38:18.044Z,12.22
2023-04-01T15:40:51.086Z,11.79
2023-04-01T15:43:28.879Z,10.82
2023-04-01T15:46:41.322Z,10.74
2023-04-01T15:49:24.069Z,10.95
2023-04-01T15:52:26.577Z,10.78
2023-04-01T15:55:33.668Z,10.51
2023-04-01T15:58:25.413Z,10.52
2023-04-01T16:01:20.174Z,10.42
2023-04-01T16:04:38.056Z,10.36
2023-04-01T16:07:31.729Z,10.49
2023-04-01T16:10:19.276Z,10.47
2023-04-01T16:17:52.818Z,10.42
2023-04-01T16:20:44.586Z,10.15
2023-04-01T16:23:39.628Z,9.98
2023-04-01T16:26:41.975Z,9.89
2023-04-01T16:29:39.707Z,9.73
2023-04-01T16:32:39.151Z,9.71
2023-04-01T16:35:41.472Z,9.65
2023-04-01T16:38:30.863Z,9.56
2023-04-01T16:42:03.493Z,9.53
2023-04-01T16:45:27.198Z,9.38
2023-04-01T16:48:21.645Z,9.25
2023-04-01T16:51:17.349Z,9.53
2023-04-01T16:53:54.073Z,9.54
2023-04-01T16:56:40.928Z,9.47
2023-04-01T16:59:14.800Z,9.58
2023-04-01T17:02:05.840Z,9.54
2023-04-01T17:04:45.801Z,9.53
2023-04-01T17:08:07.182Z,9.56
2023-04-01T17:10:46.934Z,9.58
2023-04-01T17:13:25.721Z,9.57
2023-04-01T17:16:30.841Z,9.57
2023-04-01T17:19:34.211Z,9.60
2023-04-01T17:22:28.162Z,9.57
2023-04-01T17:25:39.666Z,9.60
2023-04-01T17:28:19.317Z,9.66
2023-04-01T17:31:38.963Z,9.66
2023-04-01T17:34:44.511Z,9.66
2023-04-01T17:37:41.443Z,9.70
2023-04-01T17:40:38.665Z,9.67
2023-04-01T17:43:50.595Z,9.73
2023-04-01T17:46:49.863Z,9.74
2023-04-01T17:49:39.656Z,9.70
2023-04-01T17:52:23.053Z,9.68
2023-04-01T17:54:53.733Z,9.75
2023-04-01T17:57:25.119Z,9.74
2023-04-01T18:00:14.353Z,9.73
2023-04-01T18:03:00.688Z,9.72
2023-04-01T18:06:10.353Z,9.74
2023-04-01T18:09:18.056Z,9.80
2023-04-01T18:12:02.400Z,9.72
2023-04-01T18:15:08.176Z,9.74
2023-04-01T18:17:54.189Z,9.74
2023-04-01T18:21:08.614Z,9.82
2023-04-01T18:24:07.077Z,9.80
2023-04-01T18:27:10.722Z,9.94
2023-04-01T18:30:03.364Z,9.87
2023-04-01T18:32:54.215Z,9.84
2023-04-01T18:36:41.699Z,9.72
2023-04-01T18:40:28.780Z,9.73
2023-04-01T18:43:22.844Z,9.67
2023-04-01T18:46:18.045Z,9.60
2023-04-01T18:49:09.373Z,9.68
2023-04-01T18:52:01.462Z,9.74
2023-04-01T18:54:35.880Z,9.71
2023-04-01T18:57:11.531Z,9.68
2023-04-01T18:59:42.590Z,9.71
2023-04-01T19:02:49.439Z,10.32
2023-04-01T19:05:27.910Z,9.89
2023-04-01T19:07:56.955Z,9.73
2023-04-01T19:11:03.282Z,9.67
2023-04-01T19:13:42.990Z,9.66
2023-04-01T19:16:25.955Z,9.57
2023-04-01T19:19:23.341Z,9.64
2023-04-01T19:22:04.452Z,9.48
2023-04-01T19:25:14.530Z,9.62
2023-04-01T19:27:54.568Z,9.62
2023-04-01T19:30:49.583Z,9.61
2023-04-01T19:33:47.070Z,9.68
2023-04-01T19:36:26.099Z,9.59
2023-04-01T19:39:11.146Z,9.56
2023-04-01T19:42:01.567Z,9.61
2023-04-01T19:44:31.213Z,9.54
2023-04-01T19:47:26.782Z,9.59
2023-04-01T19:50:02.538Z,9.63
2023-04-01T19:52:42.412Z,9.72
2023-04-01T19:55:29.768Z,10.09
2023-04-01T19:58:25.976Z,10.29
2023-04-01T20:01:00.326Z,10.53
2023-04-01T20:04:05.616Z,10.45
2023-04-01T20:07:03.526Z,10.36
2023-04-01T20:10:11.228Z,10.56
2023-04-01T20:13:00.471Z,10.48
2023-04-01T20:15:46.784Z,10.33
2023-04-01T20:18:22.905Z,10.21
2023-04-01T20:21:23.914Z,10.22
2023-04-01T20:24:44.122Z,10.21
2023-04-01T20:27:15.076Z,10.15
2023-04-01T20:30:20.700Z,10.00
2023-04-01T20:33:29.380Z,9.90
2023-04-01T20:36:23.772Z,10.01
2023-04-01T20:39:10.198Z,10.01
2023-04-01T20:42:07.602Z,9.95
2023-04-01T20:44:53.980Z,9.89
2023-04-01T20:48:02.283Z,9.95
2023-04-01T20:50:50.774Z,10.06
2023-04-01T20:53:49.222Z,9.99
2023-04-01T20:56:42.142Z,9.94
2023-04-01T20:59:29.074Z,9.87
2023-04-01T21:02:23.551Z,9.73
2023-04-01T21:05:26.422Z,9.74
2023-04-01T21:08:22.054Z,9.86
2023-04-01T21:11:06.058Z,9.77
2023-04-01T21:13:58.836Z,9.85
2023-04-01T21:16:31.709Z,9.79
2023-04-01T21:19:14.043Z,9.67
2023-04-01T21:22:05.564Z,9.85
2023-04-01T21:34:59.960Z,9.83
2023-04-01T21:37:42.817Z,9.73
2023-04-01T21:40:23.782Z,9.79
2023-04-01T21:43:01.920Z,9.93
2023-04-01T21:45:43.605Z,9.90
2023-04-01T22:37:43.208Z,9.77
2023-04-01T22:40:51.495Z,9.80
2023-04-01T22:43:43.904Z,9.96
2023-04-01T22:46:51.742Z,9.88
2023-04-01T22:49:33.926Z,9.65
2023-04-01T22:52:18.124Z,9.74
2023-04-01T22:54:52.099Z,9.83
2023-04-01T22:57:55.399Z,9.80
2023-04-01T23:00:29.214Z,9.73
2023-04-01T23:03:11.573Z,9.72
2023-04-01T23:05:51.632Z,9.59
2023-04-01T23:08:42.637Z,9.52
2023-04-01T23:11:31.217Z,9.56
2023-04-01T23:14:20.726Z,9.65
2023-04-01T23:16:58.768Z,9.53
2023-04-01T23:19:36.130Z,9.46
2023-04-01T23:22:17.894Z,9.49
2023-04-01T23:24:54.675Z,9.41
2023-04-01T23:27:36.127Z,9.34
2023-04-01T23:30:05.469Z,9.39
2023-04-01T23:32:32.894Z,9.38
2023-04-01T23:35:01.415Z,9.42
2023-04-01T23:37:28.832Z,9.38
2023-04-01T23:39:59.720Z,9.43
2023-04-01T23:42:34.009Z,9.53
2023-04-01T23:45:13.873Z,9.51
2023-04-01T23:47:42.334Z,9.44
2023-04-01T23:50:21.260Z,9.64
2023-04-01T23:53:18.313Z,9.39
2023-04-01T23:55:52.735Z,9.42
2023-04-01T23:58:24.223Z,9.39
